Time;durP1;ratioP1;P1;durP2;ratioP2;P2;SDS_P1;SDS_P2;PMS_P1;PMS_P2;Temp;Humidity;BMP_temperature;BMP_pressure;BME280_temperature;BME280_humidity;BME280_pressure;Samples;Min_cycle;Max_cycle;Signal;HPM_P1;HPM_P2
2023/05/31 00:01:25;;;;;;;4.78;3.05;;;;;;;18.43;44.31;95878.81;5073350;28;20202;-87
2023/05/31 00:03:54;;;;;;;4.93;2.78;;;;;;;18.39;43.84;95890.66;5053915;28;20190;-87
2023/05/31 00:06:21;;;;;;;3.50;3.03;;;;;;;18.33;44.38;95881.91;5065052;28;20307;-88
2023/05/31 00:08:49;;;;;;;3.20;2.72;;;;;;;18.33;43.95;95879.28;5067763;28;20207;-88
2023/05/31 00:11:15;;;;;;;4.82;3.03;;;;;;;18.33;44.03;95870.69;5128410;22;20582;-84
2023/05/31 00:13:42;;;;;;;7.70;3.20;;;;;;;18.37;43.96;95874.44;5113828;28;20196;-84
2023/05/31 00:16:13;;;;;;;3.70;3.30;;;;;;;18.35;43.83;95876.47;5100386;28;20242;-83
2023/05/31 00:18:39;;;;;;;3.90;2.80;;;;;;;18.35;43.00;95876.47;5093838;28;20193;-84
2023/05/31 00:21:06;;;;;;;3.92;2.80;;;;;;;18.18;43.48;95871.84;5094127;28;20559;-84
2023/05/31 00:23:32;;;;;;;3.22;2.90;;;;;;;18.09;43.29;95873.13;5093868;28;20192;-84
2023/05/31 00:26:00;;;;;;;5.45;3.47;;;;;;;18.07;43.29;95872.56;5094852;28;20646;-82
2023/05/31 00:28:27;;;;;;;3.10;2.80;;;;;;;17.99;43.71;95877.25;5095570;28;20203;-82
2023/05/31 00:30:54;;;;;;;3.90;3.08;;;;;;;17.97;43.34;95874.84;5094123;28;20216;-82
2023/05/31 00:33:20;;;;;;;4.90;2.75;;;;;;;17.93;43.12;95877.09;5094902;28;20296;-83
2023/05/31 00:35:46;;;;;;;3.75;2.90;;;;;;;17.99;43.15;95870.22;5095618;28;20242;-82
2023/05/31 00:38:13;;;;;;;7.30;2.90;;;;;;;17.95;43.05;95866.47;5095361;28;20208;-83
2023/05/31 00:40:40;;;;;;;4.32;2.90;;;;;;;17.82;43.21;95867.38;5095895;28;20242;-83
2023/05/31 00:57:16;;;;;;;3.90;3.00;;;;;;;17.80;42.93;95877.22;5074184;28;20227;-82
2023/05/31 00:59:44;;;;;;;3.38;2.33;;;;;;;17.63;43.29;95878.75;5089016;28;20191;-83
2023/05/31 01:02:12;;;;;;;5.95;2.88;;;;;;;17.59;43.01;95877.56;5095990;28;20269;-83
2023/05/31 01:04:38;;;;;;;3.85;2.60;;;;;;;17.60;43.44;95882.56;5095295;28;20283;-83
2023/05/31 01:07:05;;;;;;;3.15;2.67;;;;;;;17.50;42.94;95881.47;5096110;28;20189;-83
2023/05/31 01:16:23;;;;;;;3.78;2.72;;;;;;;17.63;43.20;95880.56;5093730;28;20211;-83
2023/05/31 01:18:54;;;;;;;4.90;2.50;;;;;;;17.67;43.05;95885.16;5094937;28;20199;-83
2023/05/31 01:21:27;;;;;;;4.28;2.47;;;;;;;17.67;43.25;95892.97;5076221;28;20194;-83
2023/05/31 01:24:09;;;;;;;3.20;2.28;;;;;;;17.65;43.01;95881.97;5075996;28;20196;-83
2023/05/31 01:33:22;;;;;;;3.30;2.50;;;;;;;17.64;43.20;95876.94;5089084;28;20207;-83
2023/05/31 01:35:48;;;;;;;3.70;2.60;;;;;;;17.48;43.22;95878.28;5095524;28;20220;-83
2023/05/31 01:38:14;;;;;;;3.05;2.40;;;;;;;17.25;43.90;95873.63;5094030;28;20196;-83
2023/05/31 01:40:41;;;;;;;2.92;2.63;;;;;;;17.26;43.91;95870.81;5094547;28;20702;-83
2023/05/31 01:43:08;;;;;;;4.32;2.65;;;;;;;17.20;43.54;95876.84;5096401;28;20663;-82
2023/05/31 01:45:36;;;;;;;5.18;2.50;;;;;;;17.21;44.18;95878.44;5095869;28;20216;-82
2023/05/31 01:48:05;;;;;;;5.32;3.05;;;;;;;17.18;44.32;95870.25;5096538;28;20189;-83
2023/05/31 01:50:35;;;;;;;4.47;2.50;;;;;;;17.05;44.10;95872.94;5096521;28;20226;-83
2023/05/31 01:53:02;;;;;;;5.55;2.63;;;;;;;17.05;44.41;95870.34;5098488;28;20200;-83
2023/05/31 01:55:29;;;;;;;4.05;2.85;;;;;;;17.13;43.67;95870.88;5097175;28;20223;-83
2023/05/31 01:57:56;;;;;;;3.05;2.50;;;;;;;17.15;43.45;95870.66;5096191;28;20207;-83
2023/05/31 02:00:24;;;;;;;4.28;2.65;;;;;;;17.14;43.57;95874.28;5098207;28;20196;-83
2023/05/31 02:02:52;;;;;;;2.88;2.50;;;;;;;17.13;44.06;95870.88;5099762;28;20200;-83
2023/05/31 02:05:18;;;;;;;5.50;2.90;;;;;;;17.13;43.76;95868.28;5099283;28;20310;-83
2023/05/31 02:07:47;;;;;;;3.33;2.35;;;;;;;17.02;43.39;95874.16;5099207;28;20203;-84
2023/05/31 02:10:13;;;;;;;4.10;2.65;;;;;;;16.97;43.89;95873.19;5100864;28;20272;-83
2023/05/31 02:12:40;;;;;;;3.50;2.60;;;;;;;16.95;43.96;95881.19;5098743;28;20196;-83
2023/05/31 02:15:10;;;;;;;4.45;2.63;;;;;;;16.77;44.00;95876.69;5098551;28;20223;-82
2023/05/31 02:17:40;;;;;;;3.92;2.55;;;;;;;16.83;44.14;95872.47;5095548;28;20262;-82
2023/05/31 02:20:09;;;;;;;4.88;3.00;;;;;;;16.99;44.12;95878.97;5103556;28;20219;-82
2023/05/31 02:22:35;;;;;;;3.53;2.58;;;;;;;17.06;43.69;95872.75;5114733;28;20574;-82
2023/05/31 02:25:03;;;;;;;4.88;2.45;;;;;;;16.96;43.92;95875.00;5114327;28;20265;-83
2023/05/31 02:27:30;;;;;;;3.05;2.63;;;;;;;16.99;43.79;95871.97;5114572;28;20235;-82
2023/05/31 02:29:56;;;;;;;2.60;2.30;;;;;;;16.85;44.00;95875.66;5114810;28;20223;-83
2023/05/31 02:32:23;;;;;;;4.65;2.80;;;;;;;16.77;44.10;95875.91;5102498;28;20231;-82
2023/05/31 02:34:49;;;;;;;6.68;2.80;;;;;;;16.68;44.10;95877.16;5092142;28;20283;-82
2023/05/31 02:37:16;;;;;;;3.42;2.72;;;;;;;16.59;44.35;95871.34;5094787;28;20197;-82
2023/05/31 02:39:42;;;;;;;3.80;2.70;;;;;;;16.64;44.53;95868.97;5097925;28;20191;-83
2023/05/31 02:42:10;;;;;;;5.15;2.67;;;;;;;16.69;44.73;95871.75;5097711;28;20710;-82
2023/05/31 02:44:37;;;;;;;3.83;2.60;;;;;;;16.70;44.28;95870.75;5097423;28;20196;-82
2023/05/31 02:47:03;;;;;;;2.95;2.30;;;;;;;16.73;44.34;95872.94;5083629;28;20193;-82
2023/05/31 02:49:30;;;;;;;4.30;2.47;;;;;;;16.56;44.47;95872.56;5097545;28;20196;-82
2023/05/31 02:51:56;;;;;;;4.53;2.58;;;;;;;16.56;44.88;95869.94;5099458;28;21316;-83
2023/05/31 02:54:23;;;;;;;4.70;2.47;;;;;;;16.35;44.92;95867.66;5097593;28;20203;-83
2023/05/31 02:56:49;;;;;;;2.72;2.20;;;;;;;16.33;45.00;95867.06;5093024;28;20209;-82
2023/05/31 02:59:17;;;;;;;5.00;2.53;;;;;;;16.47;45.18;95867.81;5096901;28;20221;-82
2023/05/31 03:01:43;;;;;;;4.30;2.70;;;;;;;16.63;44.69;95871.72;5096909;28;20198;-82
2023/05/31 03:04:10;;;;;;;3.55;2.63;;;;;;;16.67;44.59;95871.16;5097866;28;20192;-82
2023/05/31 03:06:36;;;;;;;3.75;2.85;;;;;;;16.43;44.53;95874.41;5097287;28;20741;-83
2023/05/31 03:09:03;;;;;;;2.50;2.15;;;;;;;16.32;45.44;95870.66;5096001;28;20598;-82
2023/05/31 03:11:29;;;;;;;3.25;2.42;;;;;;;16.33;44.91;95871.47;5096013;28;20771;-82
2023/05/31 03:13:56;;;;;;;4.60;2.47;;;;;;;16.22;45.23;95876.28;5098291;28;20196;-84
2023/05/31 03:16:24;;;;;;;3.90;2.60;;;;;;;16.24;45.60;95874.28;5097381;28;20212;-83
2023/05/31 03:26:28;;;;;;;4.78;2.45;;;;;;;16.05;45.98;95879.50;5095583;28;20257;-82
2023/05/31 03:35:40;;;;;;;5.72;2.70;;;;;;;16.00;46.80;95889.69;5079389;28;20240;-82
2023/05/31 03:38:06;;;;;;;3.00;2.25;;;;;;;16.01;46.84;95884.31;5092180;28;20212;-82
2023/05/31 03:40:33;;;;;;;5.68;2.47;;;;;;;16.01;46.72;95889.50;5095948;28;20198;-82
2023/05/31 03:47:17;;;;;;;11.48;8.23;;;;;;;16.21;46.96;95886.88;5096159;28;20340;-82
2023/05/31 03:49:44;;;;;;;5.53;4.38;;;;;;;16.28;47.11;95900.66;5092601;28;20200;-82
2023/05/31 03:52:12;;;;;;;4.47;3.05;;;;;;;16.34;46.79;95892.03;5106493;28;20706;-82
2023/05/31 03:54:39;;;;;;;7.22;3.03;;;;;;;16.28;47.09;95892.84;5108340;28;20188;-82
2023/05/31 03:57:06;;;;;;;4.43;2.42;;;;;;;16.09;47.05;95894.50;5094144;28;20201;-83
2023/05/31 04:02:55;;;;;;;6.40;2.78;;;;;;;16.18;46.43;95890.66;5089145;28;20258;-83
2023/05/31 04:05:21;;;;;;;3.03;2.42;;;;;;;16.17;46.49;95894.25;5096107;28;20227;-83
2023/05/31 04:11:10;;;;;;;3.88;2.28;;;;;;;16.23;45.81;95897.84;5090553;28;20260;-82
2023/05/31 04:13:37;;;;;;;3.97;2.45;;;;;;;16.21;46.29;95890.25;5094004;28;20230;-82
2023/05/31 04:20:03;;;;;;;2.88;2.50;;;;;;;16.40;45.07;95891.22;5089072;28;20195;-83
2023/05/31 04:22:29;;;;;;;6.57;2.42;;;;;;;16.29;45.08;95899.66;5085873;28;20235;-83
2023/05/31 04:24:56;;;;;;;3.88;2.30;;;;;;;16.28;45.80;95899.84;5092429;28;20216;-84
2023/05/31 04:27:25;;;;;;;4.50;2.47;;;;;;;16.18;45.79;95900.25;5094433;28;20200;-83
2023/05/31 04:29:52;;;;;;;3.55;2.28;;;;;;;16.25;46.00;95895.84;5091645;28;20200;-83
2023/05/31 04:32:21;;;;;;;4.32;2.58;;;;;;;16.31;45.82;95899.44;5075936;28;20224;-82
2023/05/31 04:41:33;;;;;;;7.47;2.60;;;;;;;16.86;45.53;95903.25;5075048;28;20204;-84
2023/05/31 04:44:01;;;;;;;3.20;2.60;;;;;;;16.84;45.36;95893.06;5089675;28;20200;-83
2023/05/31 04:49:49;;;;;;;9.75;8.40;;;;;;;16.48;45.07;95898.78;5085117;28;20239;-84
2023/05/31 04:52:16;;;;;;;5.10;3.45;;;;;;;16.45;45.56;95903.59;5095041;28;20224;-83
2023/05/31 04:54:42;;;;;;;4.70;3.00;;;;;;;16.56;46.03;95901.16;5098022;28;20274;-83
2023/05/31 04:57:08;;;;;;;7.25;2.90;;;;;;;16.69;45.36;95899.56;5105715;28;20235;-84
2023/05/31 04:59:36;;;;;;;5.68;2.65;;;;;;;16.65;45.52;95909.56;5097966;28;20192;-83
2023/05/31 05:02:03;;;;;;;3.95;2.92;;;;;;;16.69;46.89;95907.34;5095379;28;20189;-83
2023/05/31 05:04:30;;;;;;;6.80;2.92;;;;;;;16.90;45.92;95918.25;5095742;28;20204;-84
2023/05/31 05:06:57;;;;;;;5.38;2.70;;;;;;;16.97;46.63;95918.22;5096352;28;20188;-84
2023/05/31 05:09:23;;;;;;;3.72;2.80;;;;;;;16.99;44.54;95913.59;5095400;28;20203;-84
2023/05/31 05:11:50;;;;;;;6.28;3.00;;;;;;;17.00;45.78;95917.78;5102930;28;20223;-84
2023/05/31 05:14:16;;;;;;;4.75;2.50;;;;;;;16.82;45.43;95917.69;5110578;28;20180;-84
2023/05/31 05:16:44;;;;;;;6.30;3.10;;;;;;;16.81;45.35;95918.69;5096513;28;20430;-84
2023/05/31 05:19:10;;;;;;;22.50;8.45;;;;;;;16.96;46.61;95910.59;5098421;28;20621;-84
2023/05/31 05:21:37;;;;;;;5.03;2.83;;;;;;;17.06;45.58;95910.97;5110748;28;20187;-83
2023/05/31 05:24:03;;;;;;;5.80;3.28;;;;;;;17.14;45.86;95918.50;5106025;28;20219;-83
2023/05/31 05:26:30;;;;;;;8.45;4.15;;;;;;;17.08;46.03;95920.16;5107191;28;20211;-84
2023/05/31 05:28:57;;;;;;;4.97;2.83;;;;;;;16.96;45.09;95915.81;5106940;28;20209;-83
2023/05/31 05:31:23;;;;;;;12.73;9.45;;;;;;;17.04;45.23;95915.59;5104958;28;20221;-84
2023/05/31 05:33:52;;;;;;;16.00;14.20;;;;;;;17.06;45.01;95910.97;5102124;28;20263;-83
2023/05/31 05:36:19;;;;;;;8.68;6.30;;;;;;;17.27;44.67;95918.47;5101759;28;20211;-84
2023/05/31 05:38:45;;;;;;;4.45;2.80;;;;;;;17.39;44.72;95921.97;5098547;28;20192;-84
2023/05/31 05:41:12;;;;;;;4.57;2.60;;;;;;;17.31;43.74;95914.44;5094377;28;20199;-84
2023/05/31 05:43:38;;;;;;;5.90;2.85;;;;;;;17.30;44.36;95925.84;5094897;28;20200;-84
2023/05/31 05:46:05;;;;;;;4.13;2.72;;;;;;;17.20;44.63;95918.50;5098120;28;20249;-83
2023/05/31 05:48:31;;;;;;;3.78;2.53;;;;;;;17.13;44.67;95914.31;5095443;28;20192;-84
2023/05/31 05:51:00;;;;;;;2.80;2.30;;;;;;;17.15;44.47;95914.91;5095125;28;20192;-83
2023/05/31 05:53:26;;;;;;;5.28;2.67;;;;;;;17.23;45.06;95912.06;5093489;28;20220;-83
2023/05/31 05:55:54;;;;;;;4.35;2.72;;;;;;;17.38;44.97;95906.56;5098485;28;20207;-83
2023/05/31 05:58:21;;;;;;;5.30;2.75;;;;;;;17.45;44.24;95900.31;5102059;28;20290;-84
2023/05/31 06:00:48;;;;;;;5.82;2.92;;;;;;;17.50;44.54;95903.09;5112187;28;20535;-84
2023/05/31 06:03:15;;;;;;;4.13;3.10;;;;;;;17.53;44.64;95907.84;5096062;28;20192;-84
2023/05/31 06:05:42;;;;;;;4.55;3.00;;;;;;;17.51;44.65;95907.25;5092613;28;20419;-84
2023/05/31 06:08:10;;;;;;;4.32;2.97;;;;;;;17.54;44.11;95908.66;5090453;28;20192;-84
2023/05/31 06:23:19;;;;;;;3.50;2.72;;;;;;;18.03;44.63;95904.47;5045836;28;20199;-88
2023/05/31 06:25:51;;;;;;;4.75;2.85;;;;;;;18.17;44.48;95908.53;5051658;28;20218;-87
2023/05/31 06:31:13;;;;;;;7.35;2.88;;;;;;;18.05;43.75;95915.50;5011499;28;20299;-89
2023/05/31 06:37:01;;;;;;;5.97;2.53;;;;;;;17.90;44.25;95921.00;5037329;28;20217;-88
2023/05/31 06:39:50;;;;;;;4.22;2.67;;;;;;;17.97;44.89;95920.97;5061588;28;20221;-87
2023/05/31 07:11:09;;;;;;;4.97;2.72;;;;;;;18.85;44.76;95905.81;5649975;22;20233;-87
2023/05/31 07:13:39;;;;;;;5.95;3.03;;;;;;;18.83;44.87;95915.69;5054644;28;20233;-90
2023/05/31 07:16:38;;;;;;;7.20;2.95;;;;;;;18.85;43.27;95916.25;5040324;28;20296;-89
2023/05/31 07:24:30;;;;;;;6.55;3.42;;;;;;;19.03;43.78;95903.19;5199848;22;20333;-88
2023/05/31 07:27:07;;;;;;;4.95;3.03;;;;;;;19.07;44.01;95909.53;5067267;28;20216;-88
2023/05/31 07:40:29;;;;;;;4.63;2.80;;;;;;;19.33;43.58;95900.53;5246987;22;20224;-89
2023/05/31 07:42:58;;;;;;;5.65;2.80;;;;;;;19.53;43.25;95910.72;5070292;28;20205;-88
2023/05/31 07:48:54;;;;;;;6.35;2.60;;;;;;;19.81;43.74;95903.06;5025885;28;20198;-86
2023/05/31 07:57:38;;;;;;;4.70;3.17;;;;;;;20.16;42.07;95897.81;5116514;22;20225;-88
2023/05/31 08:00:13;;;;;;;8.35;3.20;;;;;;;20.16;41.81;95895.19;5091585;28;20394;-87
2023/05/31 08:03:14;;;;;;;6.55;3.08;;;;;;;20.19;41.85;95893.94;5090591;28;20632;-88
2023/05/31 08:05:41;;;;;;;3.58;2.78;;;;;;;20.29;42.01;95888.94;5089917;28;20223;-87
2023/05/31 08:21:21;;;;;;;4.50;2.63;;;;;;;20.75;40.61;95882.84;5069666;22;20459;-89
2023/05/31 08:30:32;;;;;;;3.75;3.15;;;;;;;21.30;39.00;95877.84;4942934;22;20242;-84
2023/05/31 08:42:55;;;;;;;5.18;2.90;;;;;;;21.69;40.11;95870.06;5112432;22;20301;-87
2023/05/31 08:45:31;;;;;;;3.67;2.72;;;;;;;21.84;38.37;95872.91;5082762;28;20269;-87
2023/05/31 08:48:10;;;;;;;6.32;2.95;;;;;;;21.92;38.67;95871.72;5076473;28;20712;-87
2023/05/31 08:50:45;;;;;;;3.63;2.50;;;;;;;22.15;38.53;95866.28;5088409;28;20202;-88
2023/05/31 08:53:21;;;;;;;5.30;3.00;;;;;;;22.33;37.45;95868.63;5089809;28;20319;-88
2023/05/31 08:55:50;;;;;;;7.40;2.80;;;;;;;22.48;38.04;95860.19;5090260;28;20296;-87
2023/05/31 08:58:20;;;;;;;4.43;2.80;;;;;;;22.67;37.96;95868.53;5090037;28;20196;-87
2023/05/31 09:00:47;;;;;;;5.35;2.70;;;;;;;22.77;37.20;95866.03;5090178;28;20203;-86
2023/05/31 09:03:15;;;;;;;4.60;2.80;;;;;;;22.83;37.12;95859.03;5090520;28;20252;-88
2023/05/31 09:05:45;;;;;;;3.45;2.88;;;;;;;22.92;37.07;95850.44;5090627;28;20220;-87
2023/05/31 09:08:18;;;;;;;5.00;2.63;;;;;;;22.97;36.79;95858.38;5089395;28;20200;-87
2023/05/31 09:16:42;;;;;;;5.88;2.53;;;;;;;23.06;35.90;95864.00;5448519;22;20234;-87
2023/05/31 09:23:02;;;;;;;4.90;3.10;;;;;;;22.65;35.33;95858.28;5033273;28;20712;-87
2023/05/31 09:32:14;;;;;;;4.45;2.85;;;;;;;22.83;35.45;95853.78;5006265;28;20241;-88
2023/05/31 09:34:49;;;;;;;6.05;2.40;;;;;;;23.01;35.59;95854.22;5037052;28;20201;-87
2023/05/31 09:37:59;;;;;;;7.07;3.30;;;;;;;23.07;35.33;95855.06;5054402;28;20200;-87
2023/05/31 09:52:33;;;;;;;8.48;2.90;;;;;;;23.52;34.01;95840.75;5178910;22;20237;-90
2023/05/31 09:55:06;;;;;;;4.88;2.78;;;;;;;23.71;34.82;95848.00;5050933;28;20217;-88
2023/05/31 09:57:40;;;;;;;7.05;2.97;;;;;;;23.97;34.43;95841.06;5051458;28;20193;-88
2023/05/31 10:00:15;;;;;;;6.22;2.63;;;;;;;24.16;34.04;95838.03;5038518;28;20202;-86
2023/05/31 10:02:50;;;;;;;6.93;2.47;;;;;;;24.16;33.53;95848.56;5040899;28;20193;-88
2023/05/31 10:05:20;;;;;;;3.88;2.70;;;;;;;24.14;33.19;95843.53;5051480;28;20315;-89
2023/05/31 10:08:31;;;;;;;6.13;2.50;;;;;;;24.01;32.11;95844.78;5051038;28;20235;-87
2023/05/31 10:17:14;;;;;;;;;;;;;;;;;;;;;
2023/05/31 10:19:48;;;;;;;6.00;2.92;;;;;;;24.08;32.44;95832.19;5026853;28;20281;-88
2023/05/31 10:22:38;;;;;;;3.63;2.67;;;;;;;24.16;32.25;95833.56;5034601;28;20202;-86
2023/05/31 10:25:32;;;;;;;5.60;2.75;;;;;;;24.01;32.23;95823.75;5030352;28;20224;-88
2023/05/31 10:28:09;;;;;;;5.85;2.53;;;;;;;24.06;32.09;95836.91;5031289;28;20198;-89
2023/05/31 10:30:46;;;;;;;5.40;2.72;;;;;;;24.20;32.22;95831.22;5031122;28;20190;-87
2023/05/31 10:33:23;;;;;;;3.45;2.47;;;;;;;24.48;32.88;95828.19;5029622;28;20267;-87
2023/05/31 10:35:52;;;;;;;5.35;3.35;;;;;;;24.55;31.50;95841.91;5028949;28;20214;-87
2023/05/31 10:38:25;;;;;;;4.95;2.50;;;;;;;24.56;31.47;95826.91;5029349;28;20368;-87
2023/05/31 10:40:56;;;;;;;3.83;2.50;;;;;;;24.49;31.77;95837.66;5029226;28;20202;-88
2023/05/31 10:43:33;;;;;;;3.78;2.63;;;;;;;24.49;31.40;95831.59;5029910;28;20256;-89
2023/05/31 10:46:23;;;;;;;6.10;3.10;;;;;;;24.73;31.31;95817.75;5029516;28;20217;-88
2023/05/31 10:48:59;;;;;;;3.58;2.70;;;;;;;24.84;31.46;95815.13;5031405;28;20534;-88
2023/05/31 11:00:30;;;;;;;7.45;3.10;;;;;;;24.83;30.32;95813.53;5405456;22;20240;-89
2023/05/31 11:19:07;;;;;;;4.13;2.70;;;;;;;25.10;29.34;95803.59;4365234;26;20236;-91
2023/05/31 11:24:43;;;;;;;8.57;2.63;;;;;;;25.34;30.42;95796.78;5182684;22;20220;-90
2023/05/31 11:30:03;;;;;;;6.05;3.13;;;;;;;25.15;30.60;95797.56;5149159;22;20229;-90
2023/05/31 12:06:58;;;;;;;6.18;2.78;;;;;;;25.62;30.35;95784.06;5056447;22;20260;-87
2023/05/31 12:10:00;;;;;;;3.95;2.90;;;;;;;25.62;29.89;95782.25;5053021;28;20220;-89
2023/05/31 12:12:27;;;;;;;5.75;2.70;;;;;;;25.94;28.48;95774.03;5164149;22;20231;-85
2023/05/31 12:14:54;;;;;;;3.72;2.67;;;;;;;26.05;28.43;95772.13;5069054;28;20228;-85
2023/05/31 12:17:21;;;;;;;5.82;3.00;;;;;;;26.06;28.48;95768.44;5068900;28;20279;-85
2023/05/31 12:19:54;;;;;;;5.63;3.45;;;;;;;26.15;29.02;95759.69;5068891;28;20192;-83
2023/05/31 12:22:22;;;;;;;3.25;2.75;;;;;;;26.11;29.16;95760.50;5070413;28;20205;-83
2023/05/31 12:24:49;;;;;;;5.90;3.03;;;;;;;25.73;28.80;95756.66;5067149;28;20215;-83
2023/05/31 12:27:16;;;;;;;4.40;3.20;;;;;;;25.68;30.44;95752.19;5054567;28;20360;-82
2023/05/31 12:29:42;;;;;;;6.63;3.08;;;;;;;25.73;29.95;95762.72;5071208;28;20296;-82
2023/05/31 12:32:10;;;;;;;5.47;3.50;;;;;;;25.87;30.32;95756.88;5070750;28;20193;-82
2023/05/31 12:34:38;;;;;;;8.32;3.58;;;;;;;26.06;30.36;95752.59;5070946;28;20691;-82
2023/05/31 12:37:06;;;;;;;5.95;3.20;;;;;;;26.17;29.84;95759.41;5069407;28;20197;-82
2023/05/31 12:46:20;;;;;;;3.53;3.03;;;;;;;25.86;29.53;95750.03;5063172;28;20579;-85
2023/05/31 12:48:47;;;;;;;5.03;3.38;;;;;;;25.71;30.93;95750.88;5069859;28;20288;-85
2023/05/31 12:51:21;;;;;;;4.55;3.00;;;;;;;25.86;30.97;95739.47;5085529;28;20959;-84
2023/05/31 12:53:48;;;;;;;3.53;3.15;;;;;;;26.12;30.94;95748.88;5093411;28;20263;-84
2023/05/31 12:56:14;;;;;;;6.13;3.47;;;;;;;26.04;30.68;95744.16;5092755;28;20216;-85
2023/05/31 12:58:40;;;;;;;4.22;3.17;;;;;;;26.17;29.88;95739.06;5090951;28;20716;-82
2023/05/31 13:04:30;;;;;;;4.13;2.90;;;;;;;26.20;29.68;95750.16;5060956;28;20203;-82
2023/05/31 13:06:57;;;;;;;5.15;3.30;;;;;;;26.35;29.31;95753.56;5072838;28;20655;-82
2023/05/31 13:09:24;;;;;;;5.40;3.10;;;;;;;26.39;29.34;95743.22;5092307;28;20226;-83
2023/05/31 13:11:51;;;;;;;5.47;2.92;;;;;;;26.42;29.13;95740.84;5075582;28;20200;-82
2023/05/31 13:14:20;;;;;;;9.15;3.70;;;;;;;26.31;29.89;95749.88;5072029;28;20714;-82
2023/05/31 13:16:47;;;;;;;3.70;3.13;;;;;;;26.31;28.99;95741.97;5071570;28;20221;-82
2023/05/31 13:19:14;;;;;;;5.65;3.25;;;;;;;26.21;28.89;95736.69;5070182;28;20205;-82
2023/05/31 13:21:42;;;;;;;6.43;3.13;;;;;;;26.23;29.17;95736.41;5069186;28;20205;-81
2023/05/31 13:24:10;;;;;;;6.82;3.47;;;;;;;26.34;29.58;95738.00;5069453;28;20211;-82
2023/05/31 13:26:37;;;;;;;5.60;3.30;;;;;;;26.40;29.65;95731.59;5067012;28;20766;-82
2023/05/31 13:29:10;;;;;;;8.52;2.92;;;;;;;26.36;28.78;95723.44;5065786;28;20228;-83
2023/05/31 13:34:58;;;;;;;5.90;3.88;;;;;;;26.56;30.60;95711.16;5060529;28;20285;-82
2023/05/31 13:37:26;;;;;;;4.72;3.38;;;;;;;26.64;29.11;95723.81;5068580;28;20201;-82
2023/05/31 13:39:55;;;;;;;5.50;3.42;;;;;;;26.54;28.89;95715.97;5066789;28;20198;-82
2023/05/31 13:42:21;;;;;;;6.13;3.42;;;;;;;26.24;29.84;95719.53;5065634;28;20814;-82
2023/05/31 13:44:48;;;;;;;8.63;3.65;;;;;;;26.28;30.17;95721.34;5060314;28;20736;-82
2023/05/31 13:47:14;;;;;;;4.75;3.35;;;;;;;26.13;30.39;95714.31;5065551;28;20863;-82
2023/05/31 13:53:04;;;;;;;3.88;3.08;;;;;;;25.92;31.12;95709.38;5062046;28;20219;-82
2023/05/31 13:55:49;;;;;;;7.13;3.40;;;;;;;25.84;30.00;95709.94;5066710;28;20221;-82
2023/05/31 13:58:17;;;;;;;3.95;3.28;;;;;;;25.91;29.91;95711.22;5055251;28;20556;-82
2023/05/31 14:00:44;;;;;;;3.72;3.00;;;;;;;25.73;29.71;95714.47;5061426;28;20205;-82
2023/05/31 14:03:10;;;;;;;4.10;2.90;;;;;;;25.62;29.81;95708.41;5066324;28;20817;-82
2023/05/31 14:05:39;;;;;;;7.32;3.15;;;;;;;25.63;30.04;95706.56;5067039;28;20691;-81
2023/05/31 14:08:07;;;;;;;3.60;3.30;;;;;;;25.55;29.37;95707.88;5068885;28;20303;-82
2023/05/31 14:10:34;;;;;;;3.60;3.00;;;;;;;25.69;29.33;95705.50;5069902;28;20330;-82
2023/05/31 14:13:00;;;;;;;3.03;2.72;;;;;;;25.87;29.91;95696.19;5067176;28;20207;-82
2023/05/31 14:22:10;;;;;;;3.30;3.08;;;;;;;26.01;29.30;95694.56;5060821;28;20675;-83
2023/05/31 14:24:38;;;;;;;4.22;3.20;;;;;;;25.88;28.84;95695.16;5067020;28;20189;-84
2023/05/31 14:50:38;;;;;;;4.80;3.47;;;;;;;25.49;29.41;95679.94;5057199;28;20537;-82
2023/05/31 15:00:40;;;;;;;5.30;3.03;;;;;;;25.66;29.77;95677.81;5056446;28;20862;-82
2023/05/31 15:06:40;;;;;;;4.97;2.80;;;;;;;25.52;28.37;95673.34;5072235;28;20283;-83
2023/05/31 15:09:08;;;;;;;4.63;2.45;;;;;;;25.63;28.27;95670.44;5069380;28;20859;-82
2023/05/31 15:11:34;;;;;;;3.72;2.63;;;;;;;25.60;29.01;95678.84;5070840;28;20232;-82
2023/05/31 15:14:01;;;;;;;4.72;2.85;;;;;;;25.44;28.14;95675.47;5072090;28;20232;-83
2023/05/31 15:16:27;;;;;;;4.25;3.08;;;;;;;25.47;28.00;95674.16;5071819;28;20228;-82
2023/05/31 15:18:54;;;;;;;4.00;2.90;;;;;;;25.39;27.59;95669.44;5071158;28;20618;-82
2023/05/31 15:21:20;;;;;;;7.43;2.90;;;;;;;25.54;28.17;95674.66;5051487;28;20205;-83
2023/05/31 15:23:48;;;;;;;3.67;2.83;;;;;;;25.58;28.84;95664.38;5052283;28;20723;-82
2023/05/31 15:26:15;;;;;;;7.25;3.13;;;;;;;25.64;27.82;95669.38;5055834;28;20221;-82
2023/05/31 15:28:42;;;;;;;3.15;2.47;;;;;;;25.58;25.17;95673.06;5069903;28;20185;-83
2023/05/31 15:31:09;;;;;;;4.30;2.45;;;;;;;25.67;26.53;95675.97;5071342;28;20196;-83
2023/05/31 15:33:36;;;;;;;3.83;2.60;;;;;;;25.77;27.24;95670.66;5070989;28;20197;-83
2023/05/31 15:36:02;;;;;;;4.53;2.85;;;;;;;25.76;27.66;95671.72;5070494;28;20208;-83
2023/05/31 15:38:29;;;;;;;3.08;2.72;;;;;;;25.62;28.04;95663.56;5072871;28;20220;-83
2023/05/31 15:40:56;;;;;;;5.32;2.88;;;;;;;25.73;28.73;95659.84;5071226;28;20216;-83
2023/05/31 15:43:24;;;;;;;4.05;2.90;;;;;;;25.74;28.94;95658.00;5070935;28;20196;-82
2023/05/31 15:45:51;;;;;;;6.35;3.15;;;;;;;25.71;29.55;95659.34;5063843;28;20210;-83
2023/05/31 15:48:17;;;;;;;4.93;3.10;;;;;;;25.64;28.74;95656.19;5055885;28;20201;-83
2023/05/31 15:54:05;;;;;;;3.97;3.33;;;;;;;25.65;28.84;95655.13;5066970;28;20216;-83
2023/05/31 15:56:33;;;;;;;6.53;3.13;;;;;;;25.53;29.73;95659.91;5068044;28;20290;-83
2023/05/31 15:59:00;;;;;;;4.15;3.30;;;;;;;25.30;29.76;95652.56;5050201;28;20609;-83
2023/05/31 16:01:26;;;;;;;6.65;3.13;;;;;;;25.20;30.20;95657.88;5051272;28;20193;-83
2023/05/31 16:03:52;;;;;;;4.95;3.28;;;;;;;25.20;30.31;95658.66;5063438;28;20208;-82
2023/05/31 16:06:19;;;;;;;4.80;2.80;;;;;;;25.38;30.41;95644.13;5064412;28;20225;-86
2023/05/31 16:08:45;;;;;;;3.55;3.15;;;;;;;25.43;29.95;95649.38;5065346;28;20189;-85
2023/05/31 16:11:12;;;;;;;4.07;2.88;;;;;;;25.41;30.10;95640.94;5070824;28;21176;-85
2023/05/31 16:13:40;;;;;;;5.30;3.22;;;;;;;25.43;30.85;95644.88;5067739;28;20216;-85
2023/05/31 16:16:07;;;;;;;4.15;3.17;;;;;;;25.51;30.17;95643.56;5063919;28;20210;-85
2023/05/31 16:18:33;;;;;;;5.30;3.15;;;;;;;25.51;30.19;95638.28;5061141;28;20679;-84
2023/05/31 16:21:00;;;;;;;3.47;3.17;;;;;;;25.54;30.20;95636.97;5062257;28;20192;-84
2023/05/31 16:23:26;;;;;;;5.72;3.60;;;;;;;25.48;32.18;95639.59;5058743;28;20194;-80
2023/05/31 16:25:53;;;;;;;4.30;3.00;;;;;;;25.41;31.03;95633.81;5053901;28;20225;-81
2023/05/31 16:28:19;;;;;;;3.67;3.30;;;;;;;25.25;31.18;95639.41;5050695;28;20588;-81
2023/05/31 16:30:47;;;;;;;4.55;3.30;;;;;;;25.07;31.73;95632.84;5050525;28;20201;-81
2023/05/31 16:33:14;;;;;;;5.70;3.65;;;;;;;24.85;32.12;95627.03;5050740;28;20728;-81
2023/05/31 16:35:40;;;;;;;5.25;3.40;;;;;;;24.86;32.55;95626.78;5050039;28;20249;-81
2023/05/31 16:38:07;;;;;;;3.53;3.00;;;;;;;24.88;32.83;95621.25;5064535;28;20199;-82
2023/05/31 16:40:33;;;;;;;6.97;3.75;;;;;;;24.96;32.99;95626.81;5055294;28;20599;-80
2023/05/31 16:43:00;;;;;;;6.82;4.57;;;;;;;24.93;33.48;95618.63;5050333;28;20652;-81
2023/05/31 16:45:27;;;;;;;6.22;4.63;;;;;;;24.92;33.29;95619.66;5104517;22;20236;-82
2023/05/31 16:47:58;;;;;;;7.07;4.32;;;;;;;25.03;33.38;95618.63;5068962;28;20193;-83
2023/05/31 16:50:24;;;;;;;5.05;3.72;;;;;;;24.99;33.04;95623.66;5069060;28;20223;-83
2023/05/31 16:52:51;;;;;;;4.55;3.55;;;;;;;24.84;33.38;95620.97;5069990;28;20200;-83
2023/05/31 16:55:18;;;;;;;5.90;3.72;;;;;;;24.86;33.31;95620.72;5067337;28;20271;-81
2023/05/31 16:57:44;;;;;;;3.85;3.40;;;;;;;24.85;33.68;95619.94;5064777;28;20261;-81
2023/05/31 17:00:12;;;;;;;5.65;3.92;;;;;;;24.74;33.32;95621.00;5068820;28;20193;-79
2023/05/31 17:02:38;;;;;;;5.93;3.72;;;;;;;24.67;33.75;95613.38;5067168;28;20563;-80
2023/05/31 17:05:07;;;;;;;3.78;3.33;;;;;;;24.63;33.82;95616.81;5068891;28;20225;-80
2023/05/31 17:07:34;;;;;;;10.23;4.15;;;;;;;24.62;33.89;95623.13;5067892;28;20200;-79
2023/05/31 17:10:01;;;;;;;7.07;3.78;;;;;;;24.64;34.05;95615.72;5067661;28;20196;-79
2023/05/31 17:12:27;;;;;;;4.68;3.55;;;;;;;24.55;34.35;95622.59;5063616;28;20284;-80
2023/05/31 17:14:53;;;;;;;4.47;3.30;;;;;;;24.53;34.33;95622.84;5059777;28;20229;-79